ADDS METAR Data INFO
IDs: Format: Raw Decoded Include TAF

Data at: 1118 UTC 21 Feb 2018

PAWD 201453Z AUTO 10SM CLR M02/M06 A3034 RMK AO2 SLP275 T10171061 56011 TSNO $
PAWD 201353Z AUTO 01013G21KT 10SM CLR M01/M06 A3035 RMK AO2 SLP277 T10111061 TSNO $
PAWD 201253Z AUTO 36007KT 10SM FEW110 M03/M06 A3033 RMK AO2 SLP272 T10281061 TSNO $
PAWD 201153Z AUTO 36008KT 10SM OVC100 M03/M06 A3038 RMK AO2 SLP286 T10281061 11022 21039 53005 TSNO $
PAWD 201053Z AUTO 34007KT 10SM BKN120 M03/M06 A3036 RMK AO2 SLP279 T10281061 TSNO $
PAWD 200953Z AUTO 34010KT 10SM CLR M03/M07 A3037 RMK AO2 SLP285 T10331067 TSNO $
PAWD 200853Z AUTO 35010KT 10SM CLR M04/M06 A3036 RMK AO2 SLP281 T10391061 400281039 53006 TSNO $
PAWD 200753Z AUTO 36009KT 10SM CLR M03/M06 A3034 RMK AO2 SLP274 T10281056 TSNO $
PAWD 200653Z AUTO 36011KT 10SM CLR M03/M06 A3035 RMK AO2 SLP277 T10331056 TSNO $
PAWD 200553Z AUTO 36010KT 10SM CLR M02/M06 A3034 RMK AO2 SLP275 T10221056 10028 21022 51008 TSNO $
PAWD 200453Z AUTO 36009KT 10SM CLR M02/M06 A3034 RMK AO2 SLP274 T10221056 TSNO $
PAWD 200353Z AUTO 35009KT 10SM CLR M01/M06 A3033 RMK AO2 SLP271 T10111056 TSNO $
PAWD 200253Z AUTO 01010KT 10SM CLR M01/M06 A3032 RMK AO2 SLP267 T10061056 58003 TSNO $
PAWD 200153Z AUTO 35010KT 10SM CLR 00/M06 A3033 RMK AO2 SLP270 T00001056 TSNO $
PAWD 200053Z AUTO 35016KT 10SM CLR 01/M06 A3034 RMK AO2 SLP273 T00111056 TSNO $
PAWD 192353Z AUTO 02008G17KT 10SM CLR 03/M06 A3033 RMK AO2 SLP270 T00281056 10028 21006 58001 TSNO $